Time;durP1;ratioP1;P1;durP2;ratioP2;P2;SDS_P1;SDS_P2;PMS_P1;PMS_P2;Temp;Humidity;BMP_temperature;BMP_pressure;BME280_temperature;BME280_humidity;BME280_pressure;Samples;Min_cycle;Max_cycle;Signal;HPM_P1;HPM_P2
2023/08/12 00:01:03;;;;;;;;;;;18.40;99.90;;;;;;5051012;28;20493;-65
2023/08/12 00:03:29;;;;;;;6.38;2.88;;;18.50;99.90;;;;;;5073526;28;19923;-61
2023/08/12 00:05:56;;;;;;;7.60;3.17;;;18.50;99.90;;;;;;5067241;28;20125;-62
2023/08/12 00:08:22;;;;;;;4.95;2.75;;;18.50;99.90;;;;;;5076697;28;20057;-63
2023/08/12 00:10:47;;;;;;;;;;;18.50;99.90;;;;;;5071095;28;20040;-63
2023/08/12 00:13:17;;;;;;;5.07;3.13;;;18.50;99.90;;;;;;5064606;28;19921;-63
2023/08/12 00:15:43;;;;;;;6.38;3.38;;;18.50;99.90;;;;;;5055675;28;20073;-63
2023/08/12 00:18:09;;;;;;;6.50;3.03;;;18.50;99.90;;;;;;5061551;28;20036;-62
2023/08/12 00:20:34;;;;;;;;;;;18.50;99.90;;;;;;5060849;28;20033;-63
2023/08/12 00:23:00;;;;;;;7.70;3.50;;;18.50;99.90;;;;;;5046583;28;20007;-63
2023/08/12 00:25:25;;;;;;;;;;;18.50;99.90;;;;;;5047721;28;20874;-64
2023/08/12 00:27:52;;;;;;;6.85;3.40;;;18.60;99.90;;;;;;5049706;28;19920;-63
2023/08/12 00:30:18;;;;;;;6.18;2.90;;;18.60;99.90;;;;;;5061723;28;20162;-64
2023/08/12 00:32:43;;;;;;;;;;;18.60;99.90;;;;;;5058373;28;20131;-64
2023/08/12 00:35:09;;;;;;;8.25;3.22;;;18.60;99.90;;;;;;5055136;28;19973;-64
2023/08/12 00:37:34;;;;;;;;;;;18.60;99.90;;;;;;5046431;28;20094;-63
2023/08/12 00:40:00;;;;;;;5.93;3.08;;;18.60;99.90;;;;;;5053263;28;20015;-62
2023/08/12 00:42:26;;;;;;;6.25;3.65;;;18.60;99.90;;;;;;5045405;28;20849;-61
2023/08/12 00:44:51;;;;;;;6.22;3.38;;;18.70;99.90;;;;;;5047136;28;20033;-63
2023/08/12 00:47:17;;;;;;;;;;;18.70;99.90;;;;;;5057869;28;20048;-63
2023/08/12 00:49:46;;;;;;;8.25;3.60;;;18.80;99.90;;;;;;5065608;28;20443;-63
2023/08/12 00:52:15;;;;;;;8.23;3.75;;;18.80;99.90;;;;;;5051058;28;20105;-62
2023/08/12 00:54:41;;;;;;;4.85;3.40;;;18.70;99.90;;;;;;5047599;28;20041;-63
2023/08/12 00:57:07;;;;;;;;;;;18.70;99.90;;;;;;5058999;28;20052;-63
2023/08/12 00:59:36;;;;;;;4.50;3.25;;;18.70;99.90;;;;;;5047166;28;20448;-63
2023/08/12 01:02:01;;;;;;;8.02;3.20;;;18.70;99.90;;;;;;5052630;28;20048;-62
2023/08/12 01:04:27;;;;;;;;;;;18.80;99.90;;;;;;5052913;28;20041;-63
2023/08/12 01:06:53;;;;;;;7.93;3.65;;;18.80;99.90;;;;;;5055359;28;19924;-64
2023/08/12 01:09:19;;;;;;;5.18;3.15;;;18.80;99.90;;;;;;5063640;28;21011;-63
2023/08/12 01:12:02;;;;;;;7.97;3.38;;;18.80;99.90;;;;;;5056858;28;20200;-63
2023/08/12 01:14:54;;;;;;;9.77;3.58;;;18.80;99.90;;;;;;5048879;28;20495;-63
2023/08/12 01:17:20;;;;;;;12.43;3.97;;;18.80;99.90;;;;;;5057075;28;20128;-62
2023/08/12 01:19:47;;;;;;;8.07;4.60;;;18.80;99.90;;;;;;5048689;28;20040;-63
2023/08/12 01:22:14;;;;;;;5.75;3.90;;;18.80;99.90;;;;;;5053624;28;20037;-62
2023/08/12 01:24:44;;;;;;;12.70;6.00;;;18.80;99.90;;;;;;5060031;28;20065;-63
2023/08/12 01:27:12;;;;;;;12.07;5.20;;;18.80;99.90;;;;;;5035257;28;20064;-64
2023/08/12 01:29:50;;;;;;;7.57;4.80;;;18.70;99.90;;;;;;5047191;28;20099;-63
2023/08/12 01:32:45;;;;;;;9.98;5.72;;;18.80;99.90;;;;;;5058470;28;20075;-63
2023/08/12 01:35:20;;;;;;;17.30;6.90;;;18.80;99.90;;;;;;5039209;28;20056;-62
2023/08/12 01:37:49;;;;;;;13.35;5.82;;;18.80;99.90;;;;;;5057015;28;20115;-64
2023/08/12 01:40:18;;;;;;;18.08;7.82;;;18.80;99.90;;;;;;5049970;28;20095;-62
2023/08/12 01:42:45;;;;;;;19.08;12.10;;;18.70;99.90;;;;;;5059103;28;20827;-63
2023/08/12 01:45:10;;;;;;;21.08;10.63;;;18.70;99.90;;;;;;5056013;28;20079;-64
2023/08/12 01:47:36;;;;;;;;;;;18.70;99.90;;;;;;5045431;28;20037;-63
2023/08/12 01:50:02;;;;;;;19.40;10.55;;;18.70;99.90;;;;;;5045725;28;19928;-63
2023/08/12 01:52:28;;;;;;;27.40;12.52;;;18.70;99.90;;;;;;5052477;28;20086;-64
2023/08/12 01:54:54;;;;;;;22.30;14.00;;;18.70;99.90;;;;;;5064401;28;20060;-63
2023/08/12 01:57:20;;;;;;;21.83;14.30;;;18.70;99.90;;;;;;5058235;28;20040;-63
2023/08/12 01:59:46;;;;;;;;;;;18.60;99.90;;;;;;5044633;28;20044;-62
2023/08/12 02:02:12;;;;;;;28.63;16.63;;;18.60;99.90;;;;;;5056720;28;20023;-62
2023/08/12 02:04:40;;;;;;;21.60;15.23;;;18.60;99.90;;;;;;5042763;28;20044;-63
2023/08/12 02:07:05;;;;;;;23.50;15.45;;;18.50;99.90;;;;;;5057833;28;20053;-62
2023/08/12 02:09:31;;;;;;;;;;;18.60;99.90;;;;;;5050849;28;20044;-62
2023/08/12 02:11:57;;;;;;;18.25;11.43;;;18.60;99.90;;;;;;5050606;28;19920;-63
2023/08/12 02:14:23;;;;;;;19.83;13.10;;;18.60;99.90;;;;;;5054461;28;20396;-62
2023/08/12 02:16:48;;;;;;;;;;;18.60;99.90;;;;;;5053717;28;20055;-62
2023/08/12 02:19:14;;;;;;;21.23;11.48;;;18.60;99.90;;;;;;5043732;28;19916;-63
2023/08/12 02:21:41;;;;;;;19.83;11.75;;;18.60;99.90;;;;;;5035020;28;20174;-63
2023/08/12 02:24:07;;;;;;;23.58;12.38;;;18.60;99.90;;;;;;5054506;28;20040;-63
2023/08/12 02:26:33;;;;;;;25.98;14.57;;;18.50;99.90;;;;;;5026782;28;20040;-62
2023/08/12 02:28:59;;;;;;;24.35;14.70;;;18.60;99.90;;;;;;5053834;28;20516;-63
2023/08/12 02:31:25;;;;;;;;;;;18.50;99.90;;;;;;5057998;28;20048;-62
2023/08/12 02:33:50;;;;;;;26.00;15.57;;;18.60;99.90;;;;;;5052464;28;19923;-63
2023/08/12 02:36:16;;;;;;;;;;;18.50;99.90;;;;;;5056845;28;20037;-62
2023/08/12 02:38:41;;;;;;;25.77;15.05;;;18.50;99.90;;;;;;5049150;28;19923;-62
2023/08/12 02:41:07;;;;;;;;;;;18.60;99.90;;;;;;5057359;28;20048;-63
2023/08/12 02:43:33;;;;;;;26.42;14.45;;;18.50;99.90;;;;;;5044823;28;19917;-63
2023/08/12 02:45:58;;;;;;;21.52;12.82;;;18.50;99.90;;;;;;5033033;28;20496;-63
2023/08/12 02:48:24;;;;;;;17.05;11.57;;;18.50;99.90;;;;;;5043340;28;20127;-62
2023/08/12 02:50:49;;;;;;;19.42;14.10;;;18.50;99.90;;;;;;5043706;28;20037;-62
2023/08/12 02:53:15;;;;;;;22.48;14.15;;;18.50;99.90;;;;;;5050794;28;20407;-63
2023/08/12 02:55:41;;;;;;;19.23;14.98;;;18.40;99.90;;;;;;5050252;28;20032;-62
2023/08/12 02:58:07;;;;;;;22.13;15.35;;;18.50;99.90;;;;;;5047988;28;20626;-63
2023/08/12 03:00:33;;;;;;;30.98;18.23;;;18.40;99.90;;;;;;5035774;28;20041;-63
2023/08/12 03:02:58;;;;;;;30.70;17.58;;;18.40;99.90;;;;;;5060511;28;20055;-63
2023/08/12 03:05:24;;;;;;;29.33;18.00;;;18.40;99.90;;;;;;5050651;28;20126;-62
2023/08/12 03:07:51;;;;;;;27.58;17.77;;;18.40;99.90;;;;;;5048386;28;20512;-64
2023/08/12 03:10:18;;;;;;;31.63;19.65;;;18.40;99.90;;;;;;5053054;28;20047;-63
2023/08/12 03:12:44;;;;;;;27.77;18.08;;;18.40;99.90;;;;;;5043627;28;20037;-65
2023/08/12 03:15:09;;;;;;;;;;;18.40;99.90;;;;;;5052660;28;20377;-63
2023/08/12 03:17:44;;;;;;;33.53;18.20;;;18.40;99.90;;;;;;5051994;28;20303;-62
2023/08/12 03:20:12;;;;;;;29.77;17.45;;;18.40;99.90;;;;;;5032761;28;20029;-65
2023/08/12 03:22:39;;;;;;;29.98;18.98;;;18.30;99.90;;;;;;5006256;28;20879;-63
2023/08/12 03:25:05;;;;;;;30.77;18.45;;;18.30;99.90;;;;;;5029685;28;20049;-63
2023/08/12 03:27:30;;;;;;;26.00;18.13;;;18.40;99.90;;;;;;5029281;28;20132;-62
2023/08/12 03:29:56;;;;;;;;;;;18.40;99.90;;;;;;5036723;28;20909;-63
2023/08/12 03:32:22;;;;;;;23.77;17.40;;;18.40;99.90;;;;;;5039796;28;19931;-65
2023/08/12 03:34:47;;;;;;;;;;;18.30;99.90;;;;;;5056894;28;20119;-64
2023/08/12 03:37:13;;;;;;;22.83;17.13;;;18.30;99.90;;;;;;5024310;28;20459;-62
2023/08/12 03:39:38;;;;;;;;;;;18.40;99.90;;;;;;5048763;28;20064;-62
2023/08/12 03:42:04;;;;;;;26.25;16.80;;;18.40;99.90;;;;;;5041017;28;19920;-63
2023/08/12 03:44:30;;;;;;;28.35;18.00;;;18.30;99.90;;;;;;5036895;28;20538;-62
2023/08/12 03:46:55;;;;;;;23.38;15.60;;;18.30;99.90;;;;;;5056616;28;20049;-62
2023/08/12 03:49:21;;;;;;;26.58;16.70;;;18.30;99.90;;;;;;5042738;28;20037;-63
2023/08/12 03:51:47;;;;;;;32.80;17.92;;;18.30;99.90;;;;;;5038270;28;20072;-61
2023/08/12 03:54:12;;;;;;;24.83;16.83;;;18.30;99.90;;;;;;5049668;28;20044;-63
2023/08/12 03:56:38;;;;;;;23.42;15.65;;;18.30;99.90;;;;;;5040317;28;20060;-62
2023/08/12 03:59:04;;;;;;;21.13;13.55;;;18.30;99.90;;;;;;5048005;28;20091;-63
2023/08/12 04:01:30;;;;;;;26.08;16.30;;;18.30;99.90;;;;;;5051415;28;20040;-65
2023/08/12 04:03:55;;;;;;;23.20;14.52;;;18.30;99.90;;;;;;5047019;28;20772;-64
2023/08/12 04:06:21;;;;;;;;;;;18.30;99.90;;;;;;5042181;28;20033;-62
2023/08/12 04:08:46;;;;;;;21.33;15.82;;;18.30;99.90;;;;;;5041398;28;19916;-64
2023/08/12 04:11:12;;;;;;;32.85;20.02;;;18.30;99.90;;;;;;5057612;28;20048;-62
2023/08/12 04:13:38;;;;;;;;;;;18.30;99.90;;;;;;5053237;28;20118;-62
2023/08/12 04:16:03;;;;;;;22.80;15.95;;;18.30;99.90;;;;;;5055949;28;20025;-62
2023/08/12 04:18:29;;;;;;;29.77;17.13;;;18.20;99.90;;;;;;5040324;28;20037;-62
2023/08/12 04:20:54;;;;;;;20.42;15.18;;;18.20;99.90;;;;;;5058042;28;20052;-63
2023/08/12 04:23:20;;;;;;;;;;;18.20;99.90;;;;;;5036285;28;20128;-62
2023/08/12 04:25:47;;;;;;;34.47;18.15;;;18.20;99.90;;;;;;5045315;28;19924;-62
2023/08/12 04:28:14;;;;;;;26.15;16.67;;;18.20;99.90;;;;;;5040400;28;20107;-63
2023/08/12 04:30:47;;;;;;;37.90;18.45;;;18.20;99.90;;;;;;5046479;28;20033;-63
2023/08/12 04:33:14;;;;;;;27.17;16.65;;;18.10;99.90;;;;;;5057930;28;20678;-64
2023/08/12 04:35:40;;;;;;;31.17;16.08;;;18.10;99.90;;;;;;5047640;28;20078;-62
2023/08/12 04:38:06;;;;;;;19.02;15.13;;;18.10;99.90;;;;;;5058928;28;20897;-64
2023/08/12 04:40:31;;;;;;;;;;;18.10;99.90;;;;;;5049653;28;20033;-60
2023/08/12 04:42:58;;;;;;;20.05;14.25;;;18.20;99.90;;;;;;5041196;28;20368;-63
2023/08/12 04:45:24;;;;;;;17.02;12.70;;;18.10;99.90;;;;;;5042796;28;20051;-62
2023/08/12 04:47:49;;;;;;;;;;;18.00;99.90;;;;;;5061315;28;20040;-63
2023/08/12 04:50:16;;;;;;;18.15;14.02;;;18.00;99.90;;;;;;5058457;28;19920;-63
2023/08/12 04:52:41;;;;;;;16.75;12.95;;;18.00;99.90;;;;;;5007143;28;20049;-64
2023/08/12 04:55:07;;;;;;;;;;;18.00;99.90;;;;;;5051530;28;20547;-63
2023/08/12 04:57:33;;;;;;;15.90;10.80;;;18.00;99.90;;;;;;5045500;28;19921;-63
2023/08/12 04:59:58;;;;;;;12.57;9.70;;;18.00;99.90;;;;;;5054631;28;20642;-63
2023/08/12 05:02:24;;;;;;;16.83;12.23;;;18.00;99.90;;;;;;5034389;28;20096;-62
2023/08/12 05:04:50;;;;;;;16.17;11.98;;;18.00;99.90;;;;;;5047563;28;20041;-62
2023/08/12 05:07:16;;;;;;;14.27;10.82;;;18.00;99.90;;;;;;5058709;28;20041;-62
2023/08/12 05:09:44;;;;;;;;;;;18.00;99.90;;;;;;5025658;28;20094;-65
2023/08/12 05:12:10;;;;;;;;;;;18.00;99.90;;;;;;5043751;28;19920;-63
2023/08/12 05:14:35;;;;;;;13.90;10.30;;;18.10;99.90;;;;;;5050501;28;19924;-64
2023/08/12 05:17:01;;;;;;;17.38;14.02;;;18.10;99.90;;;;;;5048499;28;20040;-62
2023/08/12 05:19:27;;;;;;;16.65;12.90;;;18.10;99.90;;;;;;5051801;28;20532;-64
2023/08/12 05:21:52;;;;;;;;;;;18.10;99.90;;;;;;5051146;28;20032;-60
2023/08/12 05:24:18;;;;;;;16.25;11.32;;;18.10;99.90;;;;;;5036030;28;20020;-64
2023/08/12 05:26:43;;;;;;;17.15;12.65;;;18.10;99.90;;;;;;5049485;28;20817;-63
2023/08/12 05:29:09;;;;;;;;;;;18.10;99.90;;;;;;5054493;28;20055;-63
2023/08/12 05:31:34;;;;;;;13.80;10.52;;;18.10;99.90;;;;;;5041677;28;19978;-68
2023/08/12 05:34:00;;;;;;;;;;;18.10;99.90;;;;;;5054113;28;20044;-61
2023/08/12 05:36:26;;;;;;;13.27;8.82;;;18.10;99.90;;;;;;5040713;28;19924;-62
2023/08/12 05:38:51;;;;;;;;;;;18.10;99.90;;;;;;5054391;28;20102;-64
2023/08/12 05:41:17;;;;;;;13.68;8.65;;;18.10;99.90;;;;;;5051315;28;19921;-65
2023/08/12 05:43:42;;;;;;;;;;;18.00;99.90;;;;;;5063560;28;20036;-62
2023/08/12 05:46:08;;;;;;;11.07;6.15;;;18.00;99.90;;;;;;5048828;28;19921;-61
2023/08/12 05:48:34;;;;;;;7.70;6.57;;;18.00;99.90;;;;;;5060436;28;20048;-61
2023/08/12 05:50:59;;;;;;;6.75;5.38;;;18.00;99.90;;;;;;5061601;28;20068;-62
2023/08/12 05:53:25;;;;;;;7.60;5.50;;;18.00;99.90;;;;;;5056508;28;20045;-60
2023/08/12 05:55:51;;;;;;;7.03;4.55;;;18.00;99.90;;;;;;5048870;28;20515;-63
2023/08/12 05:58:16;;;;;;;4.90;3.65;;;18.00;99.90;;;;;;5054394;28;20032;-63
2023/08/12 06:00:45;;;;;;;;;;;18.00;99.90;;;;;;5042466;28;20045;-61
2023/08/12 06:03:11;;;;;;;7.40;4.35;;;18.00;99.90;;;;;;5053093;28;19963;-63
2023/08/12 06:05:37;;;;;;;4.13;3.35;;;18.00;99.90;;;;;;5046250;28;20098;-62
2023/08/12 06:08:02;;;;;;;;;;;18.00;99.90;;;;;;5052164;28;20033;-63
2023/08/12 06:10:28;;;;;;;4.78;3.08;;;18.10;99.90;;;;;;5056842;28;19924;-63
2023/08/12 06:12:54;;;;;;;5.82;3.53;;;18.10;99.90;;;;;;5042347;28;20043;-63
2023/08/12 06:15:19;;;;;;;5.00;3.22;;;18.20;99.90;;;;;;5046755;28;20041;-63
2023/08/12 06:17:45;;;;;;;6.25;3.90;;;18.20;99.90;;;;;;5033671;28;20523;-61
2023/08/12 06:20:11;;;;;;;4.18;3.78;;;18.30;99.90;;;;;;5042457;28;20119;-63
2023/08/12 06:22:37;;;;;;;6.03;3.60;;;18.30;99.90;;;;;;5043442;28;20543;-62
2023/08/12 06:25:03;;;;;;;;;;;18.30;99.90;;;;;;5052540;28;20029;-63
2023/08/12 06:27:28;;;;;;;4.10;3.70;;;18.40;99.90;;;;;;5045202;28;19924;-63
2023/08/12 06:29:54;;;;;;;8.50;4.32;;;18.40;99.90;;;;;;5042133;28;20090;-63
2023/08/12 06:32:20;;;;;;;4.95;3.72;;;18.40;99.90;;;;;;5048754;28;20042;-61
2023/08/12 06:34:45;;;;;;;5.25;4.40;;;18.50;99.90;;;;;;5051429;28;20904;-63
2023/08/12 06:37:11;;;;;;;5.63;3.95;;;18.60;99.90;;;;;;5051503;28;20119;-61
2023/08/12 06:39:36;;;;;;;;;;;18.70;99.90;;;;;;5045759;28;20078;-63
2023/08/12 06:42:03;;;;;;;6.18;5.28;;;18.70;99.90;;;;;;5049825;28;20014;-63
2023/08/12 06:44:29;;;;;;;7.25;5.57;;;18.80;99.90;;;;;;5051922;28;20043;-63
2023/08/12 06:46:54;;;;;;;;;;;18.90;99.90;;;;;;5047037;28;20041;-62
2023/08/12 06:49:20;;;;;;;6.57;5.30;;;18.90;99.90;;;;;;5053263;28;19921;-64
2023/08/12 06:51:45;;;;;;;9.45;5.38;;;18.90;99.90;;;;;;5041962;28;20711;-63
2023/08/12 06:54:11;;;;;;;7.45;5.30;;;19.10;99.90;;;;;;5044763;28;20037;-62
2023/08/12 06:56:36;;;;;;;;;;;19.50;99.90;;;;;;5037942;28;20045;-64
2023/08/12 06:59:02;;;;;;;6.32;4.82;;;19.60;99.90;;;;;;5041377;28;20225;-62
2023/08/12 07:01:28;;;;;;;5.80;4.00;;;19.80;99.90;;;;;;5048227;28;20160;-63
2023/08/12 07:03:54;;;;;;;4.32;3.67;;;19.90;99.90;;;;;;5042478;28;20684;-64
2023/08/12 07:06:19;;;;;;;7.45;3.20;;;19.90;99.90;;;;;;5037730;28;20049;-62
2023/08/12 07:08:45;;;;;;;3.85;2.78;;;20.00;99.90;;;;;;5057156;28;20445;-62
2023/08/12 07:11:10;;;;;;;5.43;2.28;;;20.00;99.90;;;;;;5060395;28;20066;-62
2023/08/12 07:13:36;;;;;;;2.97;2.08;;;20.10;99.90;;;;;;5054003;28;20045;-60
2023/08/12 07:16:02;;;;;;;3.60;2.00;;;20.00;99.90;;;;;;5018486;28;20045;-60
2023/08/12 07:18:29;;;;;;;4.68;2.92;;;19.90;99.90;;;;;;5054715;28;20050;-61
2023/08/12 07:20:54;;;;;;;4.13;2.28;;;19.80;99.90;;;;;;5036969;28;20075;-61
2023/08/12 07:23:20;;;;;;;6.65;2.38;;;19.80;99.90;;;;;;5059462;28;20095;-64
2023/08/12 07:25:47;;;;;;;5.60;2.45;;;19.80;99.90;;;;;;5058376;28;20045;-61
2023/08/12 07:28:13;;;;;;;3.55;2.42;;;20.00;99.90;;;;;;5056781;28;20044;-62
2023/08/12 07:30:38;;;;;;;4.68;2.50;;;20.10;99.90;;;;;;5052964;28;20097;-62
2023/08/12 07:33:05;;;;;;;5.70;2.58;;;20.00;99.90;;;;;;5060799;28;20040;-61
2023/08/12 07:35:30;;;;;;;4.03;2.15;;;20.10;99.90;;;;;;5050081;28;20044;-61
2023/08/12 07:37:56;;;;;;;3.08;2.28;;;20.10;99.90;;;;;;5050417;28;20492;-62
2023/08/12 07:40:22;;;;;;;3.42;1.60;;;20.20;99.90;;;;;;5067489;28;20033;-62
2023/08/12 07:42:48;;;;;;;5.93;1.90;;;20.10;99.90;;;;;;5052529;28;20040;-60
2023/08/12 07:45:13;;;;;;;6.55;2.25;;;20.20;99.90;;;;;;5056861;28;20111;-62
2023/08/12 07:47:39;;;;;;;2.97;1.83;;;20.30;99.90;;;;;;5050366;28;20044;-62
2023/08/12 07:50:05;;;;;;;3.92;1.73;;;20.50;99.90;;;;;;5051158;28;20176;-61
2023/08/12 07:52:31;;;;;;;2.15;1.40;;;20.40;99.90;;;;;;5056684;28;20501;-62
2023/08/12 07:54:56;;;;;;;2.42;1.95;;;20.30;99.90;;;;;;5053355;28;20037;-63
2023/08/12 07:57:24;;;;;;;4.22;2.00;;;20.20;99.90;;;;;;5042453;28;20106;-63
2023/08/12 07:59:51;;;;;;;3.17;1.73;;;20.00;99.90;;;;;;5051051;28;20073;-62
2023/08/12 08:02:16;;;;;;;3.47;2.13;;;19.90;99.90;;;;;;5050918;28;20091;-63
2023/08/12 08:04:42;;;;;;;3.58;2.03;;;19.80;99.90;;;;;;5060432;28;20076;-61
2023/08/12 08:07:08;;;;;;;4.13;1.80;;;19.80;99.90;;;;;;5055307;28;20048;-62
2023/08/12 08:09:34;;;;;;;2.08;1.58;;;19.70;99.90;;;;;;5054198;28;20052;-61
2023/08/12 08:12:00;;;;;;;4.70;2.25;;;19.60;99.90;;;;;;5065317;28;20045;-62
2023/08/12 08:14:27;;;;;;;3.78;1.95;;;19.50;99.90;;;;;;5052665;28;20045;-65
2023/08/12 08:16:53;;;;;;;3.25;2.03;;;19.50;99.90;;;;;;5053465;28;20049;-63
2023/08/12 08:19:19;;;;;;;3.70;2.05;;;19.50;99.90;;;;;;5036145;28;20052;-64
2023/08/12 08:21:44;;;;;;;;;;;19.50;99.90;;;;;;5047802;28;20036;-63
2023/08/12 08:24:12;;;;;;;4.90;1.70;;;19.40;99.90;;;;;;5054517;28;19927;-62
2023/08/12 08:26:40;;;;;;;7.93;2.40;;;19.30;99.90;;;;;;5053060;28;20123;-62
2023/08/12 08:29:06;;;;;;;5.88;1.98;;;19.20;99.90;;;;;;5051522;28;20037;-63
2023/08/12 08:31:32;;;;;;;;;;;19.10;99.90;;;;;;5058197;28;20047;-63
2023/08/12 08:33:57;;;;;;;3.95;2.33;;;19.10;99.90;;;;;;5052341;28;19921;-62
2023/08/12 08:36:23;;;;;;;3.13;2.03;;;19.20;99.90;;;;;;5037516;28;20076;-63
2023/08/12 08:38:49;;;;;;;5.28;2.80;;;19.20;99.90;;;;;;5045123;28;20193;-62
2023/08/12 08:41:16;;;;;;;3.63;2.00;;;19.30;99.90;;;;;;5045936;28;20235;-61
2023/08/12 08:43:45;;;;;;;5.15;2.58;;;19.40;99.90;;;;;;5047628;28;20047;-61
2023/08/12 08:46:14;;;;;;;5.45;2.17;;;19.50;99.90;;;;;;5057974;28;20090;-63
2023/08/12 08:48:41;;;;;;;6.68;2.78;;;19.60;99.90;;;;;;5048855;28;20024;-62
2023/08/12 08:51:09;;;;;;;3.60;2.50;;;19.70;99.90;;;;;;5055695;28;20040;-59
2023/08/12 08:53:38;;;;;;;4.50;2.45;;;19.80;99.90;;;;;;5040168;28;20107;-62
2023/08/12 08:56:06;;;;;;;4.00;2.03;;;19.90;99.90;;;;;;5051129;28;20403;-62
2023/08/12 08:58:32;;;;;;;5.88;2.00;;;20.10;99.90;;;;;;5056254;28;20059;-59
2023/08/12 09:00:58;;;;;;;3.40;2.17;;;20.20;99.90;;;;;;5046266;28;20033;-61
2023/08/12 09:03:25;;;;;;;4.25;1.90;;;20.30;99.90;;;;;;5031834;28;20044;-63
2023/08/12 09:05:52;;;;;;;6.55;2.05;;;20.40;99.90;;;;;;5046935;28;20491;-62
2023/08/12 09:08:19;;;;;;;1.90;1.60;;;20.60;99.90;;;;;;5050862;28;20067;-61
2023/08/12 09:10:47;;;;;;;4.60;1.70;;;20.90;99.90;;;;;;5037304;28;20029;-61
2023/08/12 09:13:14;;;;;;;1.85;1.52;;;20.90;99.90;;;;;;5048028;28;20041;-62
2023/08/12 09:15:40;;;;;;;2.25;1.70;;;20.90;99.90;;;;;;5047418;28;20041;-62
2023/08/12 09:18:06;;;;;;;2.40;1.48;;;20.90;99.90;;;;;;5042245;28;20041;-63
2023/08/12 09:20:33;;;;;;;2.85;1.80;;;20.80;99.90;;;;;;5047801;28;20047;-62
2023/08/12 09:23:00;;;;;;;2.67;1.60;;;20.60;99.90;;;;;;5056895;28;20045;-62
2023/08/12 09:25:29;;;;;;;3.00;1.60;;;20.60;99.90;;;;;;5054265;28;20099;-62
2023/08/12 09:27:58;;;;;;;1.92;1.50;;;20.70;99.90;;;;;;5052164;28;20459;-63
2023/08/12 09:30:23;;;;;;;2.88;1.98;;;20.70;99.90;;;;;;5046627;28;20029;-63
2023/08/12 09:33:03;;;;;;;3.70;1.60;;;20.80;99.90;;;;;;5050018;28;20048;-61
2023/08/12 09:35:33;;;;;;;2.60;1.52;;;20.90;99.90;;;;;;5053482;28;20048;-62
2023/08/12 09:37:58;;;;;;;2.22;1.30;;;20.90;99.90;;;;;;5057828;28;20407;-61
2023/08/12 09:40:24;;;;;;;2.42;1.50;;;21.00;99.90;;;;;;5053134;28;20036;-62
2023/08/12 09:42:50;;;;;;;4.40;1.45;;;21.00;99.90;;;;;;5039518;28;20043;-62
2023/08/12 09:45:16;;;;;;;2.63;1.50;;;21.10;99.90;;;;;;5059658;28;20032;-57
2023/08/12 09:47:44;;;;;;;5.18;1.65;;;21.10;99.90;;;;;;5045950;28;20071;-62
2023/08/12 09:50:10;;;;;;;1.55;1.20;;;21.10;99.90;;;;;;5054678;28;20072;-62
2023/08/12 09:52:35;;;;;;;3.55;1.38;;;21.20;99.90;;;;;;5046453;28;20063;-62
2023/08/12 09:55:05;;;;;;;1.40;1.15;;;21.20;99.90;;;;;;5041587;28;20040;-62
2023/08/12 09:57:33;;;;;;;1.92;1.33;;;21.20;99.90;;;;;;5022773;28;20040;-59
2023/08/12 10:00:00;;;;;;;1.35;1.00;;;21.20;99.90;;;;;;5048629;28;20472;-62
2023/08/12 10:02:27;;;;;;;2.35;1.15;;;21.50;99.90;;;;;;5055079;28;20086;-61
2023/08/12 10:04:56;;;;;;;4.00;1.40;;;21.60;99.90;;;;;;5047384;28;20045;-59
2023/08/12 10:07:23;;;;;;;1.20;1.00;;;21.60;99.90;;;;;;5045315;28;20049;-60
2023/08/12 10:09:49;;;;;;;1.90;1.00;;;21.60;99.90;;;;;;5043810;28;20044;-61
2023/08/12 10:12:15;;;;;;;0.95;0.75;;;21.50;99.90;;;;;;5056632;28;20033;-61
2023/08/12 10:14:42;;;;;;;3.35;0.88;;;21.60;99.90;;;;;;5061249;28;20044;-60
2023/08/12 10:17:09;;;;;;;1.25;1.00;;;21.60;99.90;;;;;;5044641;28;20423;-61
2023/08/12 10:19:35;;;;;;;1.88;1.00;;;21.60;99.90;;;;;;5046638;28;20064;-62
2023/08/12 10:22:03;;;;;;;2.50;1.23;;;21.60;99.90;;;;;;5048855;28;20037;-65
2023/08/12 10:24:30;;;;;;;3.05;1.42;;;21.50;99.90;;;;;;5054706;28;20119;-60
2023/08/12 10:26:56;;;;;;;1.38;0.95;;;21.70;99.90;;;;;;5051717;28;20119;-61
2023/08/12 10:29:25;;;;;;;3.28;1.13;;;21.80;99.90;;;;;;5053047;28;20128;-62
2023/08/12 10:31:50;;;;;;;2.70;1.27;;;21.80;99.90;;;;;;5047043;28;20025;-61
2023/08/12 10:34:21;;;;;;;1.50;0.82;;;21.70;99.90;;;;;;5041259;28;20528;-61
2023/08/12 10:36:48;;;;;;;1.50;1.00;;;21.70;99.90;;;;;;5052239;28;20045;-61
2023/08/12 10:39:14;;;;;;;2.35;0.98;;;21.80;99.90;;;;;;5046568;28;20094;-61
2023/08/12 10:41:51;;;;;;;1.77;1.20;;;21.80;99.90;;;;;;5059517;28;20119;-56
2023/08/12 10:44:16;;;;;;;;;;;21.90;99.90;;;;;;5051241;28;20120;-61
2023/08/12 10:46:50;;;;;;;1.30;0.87;;;21.80;99.90;;;;;;5043963;28;20015;-61
2023/08/12 10:49:16;;;;;;;3.50;0.98;;;21.60;99.90;;;;;;5054014;28;20052;-62
2023/08/12 10:51:43;;;;;;;3.92;1.00;;;21.60;99.90;;;;;;5052941;28;20161;-60
2023/08/12 10:54:30;;;;;;;0.73;0.63;;;21.50;99.90;;;;;;5044002;28;20171;-62
2023/08/12 10:57:02;;;;;;;7.07;1.30;;;21.60;99.90;;;;;;5044042;28;20048;-61
2023/08/12 10:59:46;;;;;;;1.00;0.70;;;21.50;99.90;;;;;;5038657;28;20055;-61
2023/08/12 11:02:27;;;;;;;2.22;0.70;;;21.40;99.90;;;;;;5045842;28;20736;-62
2023/08/12 11:05:03;;;;;;;1.17;0.70;;;21.40;99.90;;;;;;5048739;28;20062;-61
2023/08/12 11:07:33;;;;;;;2.13;0.82;;;21.40;99.90;;;;;;5056665;28;20527;-61
2023/08/12 11:10:03;;;;;;;0.82;0.63;;;21.40;99.90;;;;;;5061547;28;20629;-60
2023/08/12 11:12:30;;;;;;;1.33;0.77;;;21.60;99.90;;;;;;5054241;28;20040;-61
2023/08/12 11:15:01;;;;;;;1.17;0.75;;;21.80;99.90;;;;;;5046499;28;20101;-63
2023/08/12 11:17:34;;;;;;;1.17;0.70;;;21.80;99.90;;;;;;5045526;28;20506;-62
2023/08/12 11:20:04;;;;;;;1.35;0.60;;;21.80;99.90;;;;;;5054473;28;20044;-60
2023/08/12 11:22:30;;;;;;;3.05;0.90;;;21.80;99.90;;;;;;5043737;28;20032;-61
2023/08/12 11:24:56;;;;;;;2.75;0.90;;;21.90;99.90;;;;;;5064143;28;20036;-62
2023/08/12 11:27:22;;;;;;;1.88;0.88;;;21.80;99.90;;;;;;5045989;28;20052;-63
2023/08/12 11:29:51;;;;;;;4.00;0.52;;;21.80;99.90;;;;;;5023603;28;20020;-62
2023/08/12 11:32:17;;;;;;;1.88;0.60;;;21.90;99.90;;;;;;5054315;28;20510;-62
2023/08/12 11:34:43;;;;;;;3.92;0.70;;;21.90;99.90;;;;;;5052965;28;20464;-63
2023/08/12 11:37:09;;;;;;;2.22;1.00;;;21.90;99.90;;;;;;5044562;28;20041;-61
2023/08/12 11:39:34;;;;;;;1.77;0.90;;;21.90;99.90;;;;;;5027699;28;20132;-62
2023/08/12 11:42:00;;;;;;;1.73;0.98;;;21.90;99.90;;;;;;5046897;28;20450;-62
2023/08/12 11:44:26;;;;;;;1.25;0.63;;;21.90;99.90;;;;;;5043298;28;20111;-61
2023/08/12 11:46:51;;;;;;;2.95;1.00;;;21.80;99.90;;;;;;5044127;28;20087;-61
2023/08/12 11:49:18;;;;;;;0.80;0.77;;;21.80;99.90;;;;;;5055561;28;20127;-62
2023/08/12 11:51:47;;;;;;;1.80;1.00;;;21.80;99.90;;;;;;5050828;28;20202;-59
2023/08/12 11:54:12;;;;;;;1.27;0.80;;;21.80;99.90;;;;;;5054180;28;20123;-60
2023/08/12 11:56:38;;;;;;;4.72;1.30;;;21.80;99.90;;;;;;5054806;28;20139;-63
2023/08/12 11:59:05;;;;;;;3.03;0.95;;;21.70;99.90;;;;;;5043032;28;20040;-64
2023/08/12 12:01:31;;;;;;;1.80;0.80;;;21.60;99.90;;;;;;5048577;28;20037;-61
2023/08/12 12:04:03;;;;;;;1.63;0.80;;;21.70;99.90;;;;;;5053982;28;20044;-62
2023/08/12 12:06:38;;;;;;;1.27;0.70;;;21.60;99.90;;;;;;5042992;28;20039;-64
2023/08/12 12:09:06;;;;;;;1.02;0.65;;;21.60;99.90;;;;;;5040992;28;20041;-63
2023/08/12 12:11:34;;;;;;;0.88;0.68;;;21.60;99.90;;;;;;5047108;28;20081;-60
2023/08/12 12:14:02;;;;;;;3.05;0.65;;;21.60;99.90;;;;;;5045859;28;20041;-63
2023/08/12 12:16:48;;;;;;;1.83;0.77;;;21.60;99.90;;;;;;5056870;28;20044;-64
2023/08/12 12:19:22;;;;;;;2.97;0.83;;;21.60;99.90;;;;;;5053858;28;20052;-63
2023/08/12 12:21:49;;;;;;;4.00;0.90;;;21.60;99.90;;;;;;5051787;28;20155;-60
2023/08/12 12:24:15;;;;;;;2.03;0.70;;;21.50;99.90;;;;;;5059116;28;20040;-63
2023/08/12 12:26:41;;;;;;;1.30;0.82;;;21.50;99.90;;;;;;5061515;28;20127;-61
2023/08/12 12:29:07;;;;;;;1.65;0.70;;;21.40;99.90;;;;;;5046499;28;20037;-61
2023/08/12 12:31:35;;;;;;;1.40;0.73;;;21.40;99.90;;;;;;5047248;28;20075;-63
2023/08/12 12:34:03;;;;;;;1.60;0.80;;;21.40;99.90;;;;;;5055084;28;20045;-63
2023/08/12 12:36:29;;;;;;;3.33;0.93;;;21.30;99.90;;;;;;5053196;28;20536;-63
2023/08/12 12:38:55;;;;;;;1.23;0.60;;;21.20;99.90;;;;;;5055539;28;20120;-62
2023/08/12 12:41:20;;;;;;;4.60;0.70;;;21.20;99.90;;;;;;5049233;28;20080;-64
2023/08/12 12:43:46;;;;;;;0.80;0.63;;;21.20;99.90;;;;;;5054628;28;20044;-63
2023/08/12 12:46:12;;;;;;;1.17;0.80;;;21.20;99.90;;;;;;5065115;28;20037;-63
2023/08/12 12:48:37;;;;;;;2.88;0.75;;;21.10;99.90;;;;;;5052990;28;20556;-61
2023/08/12 12:51:03;;;;;;;1.00;0.70;;;21.10;99.90;;;;;;5039074;28;20140;-63